Time;durP1;ratioP1;P1;durP2;ratioP2;P2;SDS_P1;SDS_P2;PMS_P1;PMS_P2;Temp;Humidity;BMP_temperature;BMP_pressure;BME280_temperature;BME280_humidity;BME280_pressure;Samples;Min_cycle;Max_cycle;Signal;HPM_P1;HPM_P2
2024/03/31 00:01:03;;;;;;;16.35;8.23;;;;;;;;;;5073036;28;20220;-80
2024/03/31 00:03:32;;;;;;;18.60;8.35;;;;;;;;;;5071669;28;20200;-80
2024/03/31 00:05:58;;;;;;;18.20;7.80;;;;;;;;;;5072031;28;20302;-80
2024/03/31 00:08:26;;;;;;;11.75;7.32;;;;;;;;;;5070183;28;20199;-80
2024/03/31 00:10:57;;;;;;;22.40;8.55;;;;;;;;;;5067052;28;20203;-79
2024/03/31 00:13:24;;;;;;;22.35;8.05;;;;;;;;;;5074919;28;20248;-79
2024/03/31 00:15:50;;;;;;;18.65;8.05;;;;;;;;;;5070706;28;20196;-80
2024/03/31 00:18:17;;;;;;;19.67;7.40;;;;;;;;;;5070550;28;20216;-80
2024/03/31 00:20:45;;;;;;;26.80;8.35;;;;;;;;;;5072176;28;20628;-80
2024/03/31 00:23:12;;;;;;;17.42;7.55;;;;;;;;;;5078497;28;20196;-79
2024/03/31 00:25:38;;;;;;;28.85;7.70;;;;;;;;;;5075768;28;20199;-79
2024/03/31 00:28:05;;;;;;;23.73;7.90;;;;;;;;;;5070071;28;20288;-79
2024/03/31 00:30:31;;;;;;;21.42;7.85;;;;;;;;;;5070600;28;20282;-79
2024/03/31 00:32:58;;;;;;;14.45;7.10;;;;;;;;;;5067401;28;20211;-79
2024/03/31 00:35:25;;;;;;;15.27;6.55;;;;;;;;;;5074358;28;20199;-79
2024/03/31 00:37:54;;;;;;;22.30;7.28;;;;;;;;;;5075887;28;20269;-79
2024/03/31 00:40:20;;;;;;;15.20;6.45;;;;;;;;;;5070347;28;20249;-79
2024/03/31 00:42:50;;;;;;;26.88;7.80;;;;;;;;;;5072223;28;20195;-79
2024/03/31 00:45:16;;;;;;;24.85;8.25;;;;;;;;;;5068026;28;20210;-80
2024/03/31 00:47:43;;;;;;;20.58;7.47;;;;;;;;;;5069217;28;20191;-77
2024/03/31 00:50:09;;;;;;;17.38;6.80;;;;;;;;;;5069273;28;20200;-79
2024/03/31 00:52:36;;;;;;;27.60;7.80;;;;;;;;;;5068579;28;20568;-79
2024/03/31 00:55:04;;;;;;;23.33;6.63;;;;;;;;;;5069200;28;20198;-79
2024/03/31 00:57:32;;;;;;;11.73;5.97;;;;;;;;;;5074060;28;20220;-79
2024/03/31 00:59:58;;;;;;;24.33;6.85;;;;;;;;;;5073825;28;20257;-79
2024/03/31 01:02:25;;;;;;;24.27;9.80;;;;;;;;;;5070045;28;20212;-79
2024/03/31 01:04:52;;;;;;;38.35;11.65;;;;;;;;;;5068928;28;20199;-79
2024/03/31 01:07:19;;;;;;;30.65;13.63;;;;;;;;;;5071230;28;20193;-79
2024/03/31 01:09:45;;;;;;;39.78;13.30;;;;;;;;;;5077894;28;20584;-79
2024/03/31 01:12:14;;;;;;;24.25;11.13;;;;;;;;;;5082015;28;20195;-79
2024/03/31 01:14:40;;;;;;;33.40;12.63;;;;;;;;;;5068624;28;20203;-80
2024/03/31 01:17:07;;;;;;;24.48;10.70;;;;;;;;;;5057432;28;20212;-79
2024/03/31 01:19:34;;;;;;;31.33;11.90;;;;;;;;;;5073101;28;20207;-79
2024/03/31 01:22:01;;;;;;;29.80;11.32;;;;;;;;;;5069482;28;20196;-80
2024/03/31 01:24:29;;;;;;;29.83;12.35;;;;;;;;;;5068465;28;20260;-80
2024/03/31 01:26:56;;;;;;;15.93;9.38;;;;;;;;;;5068022;28;20204;-79
2024/03/31 01:29:22;;;;;;;21.08;8.00;;;;;;;;;;5069720;28;20192;-80
2024/03/31 01:31:49;;;;;;;14.90;6.53;;;;;;;;;;5068343;28;20219;-80
2024/03/31 01:34:16;;;;;;;15.82;7.00;;;;;;;;;;5072263;28;20257;-80
2024/03/31 01:36:44;;;;;;;18.33;7.03;;;;;;;;;;5068462;28;20208;-80
2024/03/31 01:39:11;;;;;;;22.67;8.13;;;;;;;;;;5074538;28;20658;-79
2024/03/31 01:41:40;;;;;;;17.43;7.90;;;;;;;;;;5063340;28;20209;-79
2024/03/31 01:44:07;;;;;;;23.30;7.95;;;;;;;;;;5067981;28;20629;-78
2024/03/31 01:46:34;;;;;;;21.27;7.28;;;;;;;;;;5072661;28;20269;-79
2024/03/31 01:49:00;;;;;;;14.35;7.45;;;;;;;;;;5074374;28;20210;-79
2024/03/31 01:51:27;;;;;;;17.05;7.40;;;;;;;;;;5072647;28;21425;-79
2024/03/31 01:53:54;;;;;;;16.92;8.20;;;;;;;;;;5075698;28;20259;-80
2024/03/31 01:56:21;;;;;;;18.67;6.90;;;;;;;;;;5072446;28;20717;-80
2024/03/31 01:58:48;;;;;;;21.75;7.38;;;;;;;;;;5076878;28;20214;-80
2024/03/31 02:01:17;;;;;;;28.75;7.88;;;;;;;;;;5080150;28;20231;-80
2024/03/31 02:03:43;;;;;;;22.20;7.85;;;;;;;;;;5072085;28;20576;-80
2024/03/31 02:06:13;;;;;;;24.13;7.50;;;;;;;;;;5077073;28;20570;-80
2024/03/31 02:08:39;;;;;;;22.80;7.25;;;;;;;;;;5073513;28;20195;-79
2024/03/31 02:11:06;;;;;;;17.08;7.47;;;;;;;;;;5074714;28;20674;-80
2024/03/31 02:13:32;;;;;;;26.42;8.32;;;;;;;;;;5071104;28;20751;-80
2024/03/31 02:16:01;;;;;;;16.88;7.95;;;;;;;;;;5076439;28;20203;-80
2024/03/31 02:18:27;;;;;;;15.35;8.05;;;;;;;;;;5053996;28;20829;-80
2024/03/31 02:20:55;;;;;;;17.80;8.63;;;;;;;;;;5071694;28;20210;-79
2024/03/31 02:23:21;;;;;;;23.55;6.95;;;;;;;;;;5071614;28;20200;-80
2024/03/31 02:25:49;;;;;;;12.07;6.95;;;;;;;;;;5071979;28;20254;-80
2024/03/31 02:28:15;;;;;;;17.48;7.65;;;;;;;;;;5071562;28;20685;-79
2024/03/31 02:30:42;;;;;;;22.52;7.82;;;;;;;;;;5071433;28;20681;-79
2024/03/31 02:33:10;;;;;;;22.42;7.35;;;;;;;;;;5071533;28;20196;-80
2024/03/31 02:35:38;;;;;;;24.48;8.30;;;;;;;;;;5070490;28;20204;-80
2024/03/31 02:38:04;;;;;;;20.45;7.00;;;;;;;;;;5071517;28;20216;-80
2024/03/31 02:40:31;;;;;;;20.20;7.22;;;;;;;;;;5071187;28;20497;-80
2024/03/31 02:42:58;;;;;;;10.65;5.60;;;;;;;;;;5072542;28;20805;-80
2024/03/31 02:45:25;;;;;;;18.73;6.47;;;;;;;;;;5070841;28;20683;-80
2024/03/31 02:47:52;;;;;;;13.35;6.97;;;;;;;;;;5070840;28;20200;-80
2024/03/31 02:50:20;;;;;;;17.50;6.65;;;;;;;;;;5071135;28;20691;-79
2024/03/31 02:52:47;;;;;;;15.90;6.68;;;;;;;;;;5071176;28;20204;-80
2024/03/31 02:55:14;;;;;;;17.08;7.18;;;;;;;;;;5069467;28;20199;-80
2024/03/31 02:57:40;;;;;;;17.10;8.18;;;;;;;;;;5076960;28;20583;-80
2024/03/31 03:00:09;;;;;;;13.88;7.20;;;;;;;;;;5070507;28;20254;-79
2024/03/31 03:02:35;;;;;;;20.23;6.97;;;;;;;;;;5063447;28;20192;-80
2024/03/31 03:05:02;;;;;;;17.40;7.20;;;;;;;;;;5070757;28;20200;-79
2024/03/31 03:07:30;;;;;;;18.02;7.82;;;;;;;;;;5070841;28;20212;-79
2024/03/31 03:09:57;;;;;;;18.50;7.65;;;;;;;;;;5071001;28;20671;-80
2024/03/31 03:12:23;;;;;;;21.00;8.77;;;;;;;;;;5070751;28;20219;-78
2024/03/31 03:14:52;;;;;;;23.85;7.95;;;;;;;;;;5070084;28;20793;-80
2024/03/31 03:17:18;;;;;;;23.05;9.25;;;;;;;;;;5070714;28;20712;-80
2024/03/31 03:19:46;;;;;;;18.70;8.57;;;;;;;;;;5070618;28;20269;-79
2024/03/31 03:22:12;;;;;;;22.00;9.35;;;;;;;;;;5068452;28;20211;-79
2024/03/31 03:24:41;;;;;;;27.40;9.68;;;;;;;;;;5070179;28;20760;-79
2024/03/31 03:27:07;;;;;;;23.67;9.05;;;;;;;;;;5058724;28;20212;-80
2024/03/31 03:29:34;;;;;;;14.07;8.35;;;;;;;;;;5070050;28;20202;-80
2024/03/31 03:32:00;;;;;;;32.35;10.55;;;;;;;;;;5070524;28;20671;-80
2024/03/31 03:34:28;;;;;;;18.83;9.27;;;;;;;;;;5070615;28;20196;-80
2024/03/31 03:36:56;;;;;;;24.88;11.65;;;;;;;;;;5070720;28;20199;-80
2024/03/31 03:39:23;;;;;;;29.10;11.68;;;;;;;;;;5069778;28;20216;-80
2024/03/31 03:41:51;;;;;;;30.02;11.77;;;;;;;;;;5070184;28;20200;-79
2024/03/31 03:44:19;;;;;;;18.40;10.93;;;;;;;;;;5069827;28;20204;-80
2024/03/31 03:46:45;;;;;;;24.25;12.52;;;;;;;;;;5069675;28;20204;-80
2024/03/31 03:49:12;;;;;;;21.75;13.63;;;;;;;;;;5069619;28;20202;-80
2024/03/31 03:51:39;;;;;;;34.85;13.57;;;;;;;;;;5070664;28;20613;-79
2024/03/31 03:54:06;;;;;;;33.83;14.85;;;;;;;;;;5069657;28;20315;-80
2024/03/31 03:56:32;;;;;;;32.53;14.35;;;;;;;;;;5069590;28;20222;-80
2024/03/31 03:59:00;;;;;;;25.42;15.30;;;;;;;;;;5069622;28;20227;-80
2024/03/31 04:01:27;;;;;;;33.63;14.60;;;;;;;;;;5068949;28;20236;-80
2024/03/31 04:03:54;;;;;;;28.77;15.90;;;;;;;;;;5068896;28;20215;-80
2024/03/31 04:06:20;;;;;;;36.95;16.15;;;;;;;;;;5072109;28;20196;-80
2024/03/31 04:08:47;;;;;;;43.15;16.40;;;;;;;;;;5065323;28;20203;-80
2024/03/31 04:11:19;;;;;;;29.52;16.42;;;;;;;;;;5071037;28;20578;-79
2024/03/31 04:13:46;;;;;;;37.47;15.20;;;;;;;;;;5069542;28;20210;-79
2024/03/31 04:16:14;;;;;;;33.85;15.60;;;;;;;;;;5069514;28;20237;-79
2024/03/31 04:18:41;;;;;;;41.03;16.73;;;;;;;;;;5069355;28;20226;-79
2024/03/31 04:21:07;;;;;;;34.05;16.83;;;;;;;;;;5069210;28;20210;-79
2024/03/31 04:23:35;;;;;;;36.80;16.80;;;;;;;;;;5073129;28;20199;-79
2024/03/31 04:26:03;;;;;;;42.97;17.45;;;;;;;;;;5077481;28;20203;-79
2024/03/31 04:28:29;;;;;;;29.88;17.38;;;;;;;;;;5069198;28;20670;-79
2024/03/31 04:30:56;;;;;;;36.95;16.80;;;;;;;;;;5068699;28;20204;-79
2024/03/31 04:33:23;;;;;;;35.90;17.33;;;;;;;;;;5068823;28;20200;-79
2024/03/31 04:35:51;;;;;;;40.03;19.60;;;;;;;;;;5068804;28;20207;-79
2024/03/31 04:38:17;;;;;;;36.05;19.55;;;;;;;;;;5075363;28;20220;-80
2024/03/31 04:40:53;;;;;;;41.65;18.60;;;;;;;;;;5069512;28;20199;-81
2024/03/31 04:43:19;;;;;;;38.47;20.20;;;;;;;;;;5070366;28;20210;-80
2024/03/31 04:45:46;;;;;;;39.97;19.58;;;;;;;;;;5081265;28;20199;-81
2024/03/31 04:48:12;;;;;;;43.03;19.38;;;;;;;;;;5070176;28;20204;-80
2024/03/31 04:50:41;;;;;;;43.25;20.73;;;;;;;;;;5067700;28;20797;-79
2024/03/31 04:53:07;;;;;;;32.30;19.00;;;;;;;;;;5068260;28;20221;-79
2024/03/31 04:55:36;;;;;;;32.45;18.95;;;;;;;;;;5068829;28;20208;-80
2024/03/31 04:58:02;;;;;;;36.08;19.67;;;;;;;;;;5069390;28;20196;-79
2024/03/31 05:00:29;;;;;;;37.10;19.45;;;;;;;;;;5069292;28;20703;-80
2024/03/31 05:02:55;;;;;;;36.95;19.25;;;;;;;;;;5067404;28;20685;-80
2024/03/31 05:05:22;;;;;;;43.53;19.17;;;;;;;;;;5068968;28;20678;-80
2024/03/31 05:07:50;;;;;;;39.85;20.38;;;;;;;;;;5074213;28;20199;-80
2024/03/31 05:10:17;;;;;;;35.90;19.20;;;;;;;;;;5072789;28;20199;-79
2024/03/31 05:12:43;;;;;;;47.30;18.98;;;;;;;;;;5069890;28;20214;-79
2024/03/31 05:15:13;;;;;;;38.42;18.55;;;;;;;;;;5068116;28;20192;-79
2024/03/31 05:17:39;;;;;;;36.55;18.52;;;;;;;;;;5070200;28;20577;-79
2024/03/31 05:20:08;;;;;;;44.90;19.33;;;;;;;;;;5074133;28;20576;-79
2024/03/31 05:22:34;;;;;;;36.38;18.23;;;;;;;;;;5070779;28;20255;-79
2024/03/31 05:25:02;;;;;;;32.35;18.20;;;;;;;;;;5076789;28;20555;-78
2024/03/31 05:27:29;;;;;;;47.03;20.23;;;;;;;;;;5082466;28;20192;-79
2024/03/31 05:29:56;;;;;;;39.58;20.00;;;;;;;;;;5072358;28;20215;-78
2024/03/31 05:32:22;;;;;;;31.60;18.25;;;;;;;;;;5074232;28;20677;-79
2024/03/31 05:34:56;;;;;;;35.05;17.83;;;;;;;;;;5075826;28;20277;-79
2024/03/31 05:37:23;;;;;;;45.50;20.50;;;;;;;;;;5079547;28;20195;-79
2024/03/31 05:39:50;;;;;;;37.47;18.33;;;;;;;;;;5072168;28;20785;-79
2024/03/31 05:42:18;;;;;;;36.90;19.77;;;;;;;;;;5074233;28;20686;-79
2024/03/31 05:44:45;;;;;;;43.45;23.08;;;;;;;;;;5072498;28;20203;-80
2024/03/31 05:47:11;;;;;;;34.88;19.63;;;;;;;;;;5073119;28;20207;-79
2024/03/31 05:49:38;;;;;;;33.78;19.48;;;;;;;;;;5071526;28;20234;-79
2024/03/31 05:52:05;;;;;;;39.55;20.50;;;;;;;;;;5075914;28;20204;-80
2024/03/31 05:54:34;;;;;;;53.47;21.40;;;;;;;;;;5073087;28;20202;-79
2024/03/31 05:57:00;;;;;;;34.83;20.83;;;;;;;;;;5066799;28;20199;-80
2024/03/31 05:59:28;;;;;;;47.97;19.27;;;;;;;;;;5072094;28;20212;-80
2024/03/31 06:01:55;;;;;;;42.60;20.08;;;;;;;;;;5072216;28;20211;-79
2024/03/31 06:04:22;;;;;;;72.35;22.05;;;;;;;;;;5071810;28;20230;-79
2024/03/31 06:06:48;;;;;;;65.10;21.23;;;;;;;;;;5072606;28;20206;-79
2024/03/31 06:09:15;;;;;;;43.42;21.20;;;;;;;;;;5066726;28;20654;-79
2024/03/31 06:11:42;;;;;;;53.08;19.48;;;;;;;;;;5072482;28;20206;-79
2024/03/31 06:14:09;;;;;;;93.20;21.00;;;;;;;;;;5078137;28;20200;-79
2024/03/31 06:16:37;;;;;;;54.95;20.45;;;;;;;;;;5071862;28;20199;-79
2024/03/31 06:19:05;;;;;;;124.78;23.48;;;;;;;;;;5071471;28;20840;-79
2024/03/31 06:21:31;;;;;;;51.63;22.25;;;;;;;;;;5075151;28;20219;-78
2024/03/31 06:23:58;;;;;;;31.45;21.35;;;;;;;;;;5071778;28;20208;-78
2024/03/31 06:26:25;;;;;;;35.65;18.27;;;;;;;;;;5073997;28;20277;-78
2024/03/31 06:28:54;;;;;;;23.27;16.88;;;;;;;;;;5075844;28;20203;-78
2024/03/31 06:31:20;;;;;;;27.63;18.23;;;;;;;;;;5072287;28;20204;-78
2024/03/31 06:33:49;;;;;;;32.53;20.98;;;;;;;;;;5079382;28;20704;-78
2024/03/31 06:36:15;;;;;;;25.52;16.52;;;;;;;;;;5072537;28;20204;-78
2024/03/31 06:38:42;;;;;;;25.53;17.57;;;;;;;;;;5071312;28;20204;-78
2024/03/31 06:41:08;;;;;;;32.90;19.38;;;;;;;;;;5072285;28;20628;-80
2024/03/31 06:43:35;;;;;;;28.60;16.90;;;;;;;;;;5080256;28;20210;-78
2024/03/31 06:46:02;;;;;;;28.00;16.92;;;;;;;;;;5076557;28;20651;-78
2024/03/31 06:48:29;;;;;;;29.02;17.88;;;;;;;;;;5070798;28;20759;-78
2024/03/31 06:50:56;;;;;;;31.40;19.25;;;;;;;;;;5079579;28;20192;-78
2024/03/31 06:53:24;;;;;;;29.80;18.35;;;;;;;;;;5073297;28;20207;-78
2024/03/31 06:55:50;;;;;;;33.57;19.53;;;;;;;;;;5071283;28;20323;-78
2024/03/31 06:58:18;;;;;;;30.63;17.70;;;;;;;;;;5069613;28;21214;-79
2024/03/31 07:00:44;;;;;;;28.98;17.40;;;;;;;;;;5071847;28;20680;-78
2024/03/31 07:03:11;;;;;;;33.87;18.80;;;;;;;;;;5069229;28;20215;-77
2024/03/31 07:05:37;;;;;;;36.27;19.60;;;;;;;;;;5078498;28;20671;-77
2024/03/31 07:08:06;;;;;;;26.93;17.97;;;;;;;;;;5068947;28;20614;-77
2024/03/31 07:10:33;;;;;;;30.33;17.07;;;;;;;;;;5070076;28;20688;-79
2024/03/31 07:13:00;;;;;;;31.63;18.10;;;;;;;;;;5067387;28;20600;-78
2024/03/31 07:15:26;;;;;;;26.65;16.90;;;;;;;;;;5066188;28;20663;-78
2024/03/31 07:17:54;;;;;;;33.17;19.10;;;;;;;;;;5069858;28;20200;-77
2024/03/31 07:20:20;;;;;;;32.63;18.92;;;;;;;;;;5065937;28;21381;-78
2024/03/31 07:22:47;;;;;;;42.22;19.38;;;;;;;;;;5071646;28;20200;-78
2024/03/31 07:25:15;;;;;;;35.60;16.35;;;;;;;;;;5070602;28;20720;-77
2024/03/31 07:27:43;;;;;;;31.05;18.38;;;;;;;;;;5072167;28;20207;-78
2024/03/31 07:30:10;;;;;;;31.27;17.77;;;;;;;;;;5071792;28;20200;-80
2024/03/31 07:32:37;;;;;;;27.58;17.90;;;;;;;;;;5066017;28;20210;-77
2024/03/31 07:35:04;;;;;;;30.57;15.00;;;;;;;;;;5069509;28;20203;-76
2024/03/31 07:37:31;;;;;;;35.40;14.77;;;;;;;;;;5072733;28;20709;-76
2024/03/31 07:39:57;;;;;;;25.40;15.20;;;;;;;;;;5069835;28;20669;-77
2024/03/31 07:42:26;;;;;;;33.13;15.50;;;;;;;;;;5071001;28;20576;-77
2024/03/31 07:44:52;;;;;;;19.30;14.97;;;;;;;;;;5070490;28;20606;-77
2024/03/31 07:47:19;;;;;;;28.83;14.20;;;;;;;;;;5069596;28;20625;-76
2024/03/31 07:49:45;;;;;;;26.57;13.30;;;;;;;;;;5069821;28;20630;-76
2024/03/31 07:52:13;;;;;;;23.97;12.03;;;;;;;;;;5080041;28;20650;-76
2024/03/31 07:54:39;;;;;;;33.50;12.47;;;;;;;;;;5064942;28;21176;-77
2024/03/31 07:57:06;;;;;;;18.27;10.70;;;;;;;;;;5066063;28;20618;-77
2024/03/31 07:59:34;;;;;;;19.87;9.17;;;;;;;;;;5058346;28;20727;-77
2024/03/31 08:02:01;;;;;;;25.40;9.53;;;;;;;;;;5074125;28;21252;-77
2024/03/31 08:04:27;;;;;;;32.27;8.57;;;;;;;;;;5068868;28;20700;-77
2024/03/31 08:06:54;;;;;;;22.43;6.77;;;;;;;;;;5061769;28;21160;-76
2024/03/31 08:09:20;;;;;;;22.20;6.10;;;;;;;;;;5064006;28;20621;-77
2024/03/31 08:11:47;;;;;;;16.50;5.60;;;;;;;;;;5066935;28;20625;-77
2024/03/31 08:14:14;;;;;;;18.00;5.10;;;;;;;;;;5060758;28;20652;-76
2024/03/31 08:16:42;;;;;;;18.27;4.37;;;;;;;;;;5064167;28;20622;-75
2024/03/31 08:19:08;;;;;;;16.77;4.83;;;;;;;;;;5065335;28;20652;-75
2024/03/31 08:21:36;;;;;;;19.03;4.60;;;;;;;;;;5063075;28;20618;-75
2024/03/31 08:24:02;;;;;;;12.60;4.03;;;;;;;;;;5065658;28;20641;-76
2024/03/31 08:26:29;;;;;;;14.33;3.00;;;;;;;;;;5065176;28;20611;-75
2024/03/31 08:28:55;;;;;;;10.57;4.27;;;;;;;;;;5062235;28;20615;-76
2024/03/31 08:31:27;;;;;;;14.37;3.70;;;;;;;;;;5067457;28;20618;-76
2024/03/31 08:33:54;;;;;;;17.30;4.77;;;;;;;;;;5059355;28;21167;-77
2024/03/31 08:36:21;;;;;;;15.83;4.13;;;;;;;;;;5061274;28;20597;-76
2024/03/31 08:38:48;;;;;;;14.37;3.70;;;;;;;;;;5064700;28;20602;-76
2024/03/31 08:41:17;;;;;;;12.97;3.87;;;;;;;;;;5062976;28;20666;-72
2024/03/31 08:43:45;;;;;;;12.17;3.40;;;;;;;;;;5062368;28;20594;-75
2024/03/31 08:46:13;;;;;;;19.73;3.90;;;;;;;;;;5062190;28;21173;-76
2024/03/31 08:48:41;;;;;;;10.63;3.33;;;;;;;;;;5064302;28;20603;-76
2024/03/31 08:51:09;;;;;;;14.17;3.90;;;;;;;;;;5059847;28;20619;-76
2024/03/31 08:53:36;;;;;;;7.63;3.00;;;;;;;;;;5058984;28;20622;-76
2024/03/31 08:56:03;;;;;;;18.67;3.60;;;;;;;;;;5065639;28;20618;-76
2024/03/31 08:58:30;;;;;;;12.13;3.30;;;;;;;;;;5068811;28;20983;-76
2024/03/31 09:00:57;;;;;;;13.60;4.10;;;;;;;;;;5068128;28;20677;-76
2024/03/31 09:03:23;;;;;;;11.33;3.30;;;;;;;;;;5069746;28;21192;-77
2024/03/31 09:05:50;;;;;;;14.67;3.67;;;;;;;;;;5069583;28;21164;-76
2024/03/31 09:08:18;;;;;;;17.17;3.67;;;;;;;;;;5071552;28;20618;-77
2024/03/31 09:10:46;;;;;;;16.47;4.03;;;;;;;;;;5076933;28;20618;-76
2024/03/31 09:13:12;;;;;;;14.30;3.77;;;;;;;;;;5067699;28;20675;-76
2024/03/31 09:15:41;;;;;;;16.27;5.13;;;;;;;;;;5077530;28;20622;-75
2024/03/31 09:18:07;;;;;;;11.07;3.60;;;;;;;;;;5069912;28;20679;-75
2024/03/31 09:20:35;;;;;;;17.90;3.50;;;;;;;;;;5064498;28;20653;-75
2024/03/31 09:23:01;;;;;;;18.97;3.40;;;;;;;;;;5072759;28;21002;-76
2024/03/31 09:25:30;;;;;;;13.93;3.90;;;;;;;;;;5061518;28;20629;-76
2024/03/31 09:28:00;;;;;;;16.20;3.67;;;;;;;;;;5067555;28;20610;-75
2024/03/31 09:30:31;;;;;;;16.70;4.97;;;;;;;;;;5072287;28;20636;-77
2024/03/31 09:32:57;;;;;;;12.77;4.93;;;;;;;;;;5068556;28;20648;-76
2024/03/31 09:35:25;;;;;;;10.43;3.70;;;;;;;;;;5068201;28;20634;-77
2024/03/31 09:37:51;;;;;;;19.20;4.00;;;;;;;;;;5071718;28;21209;-77
2024/03/31 09:40:19;;;;;;;22.60;4.33;;;;;;;;;;5069150;28;20662;-79
2024/03/31 09:42:50;;;;;;;26.23;4.93;;;;;;;;;;5068915;28;20625;-79
2024/03/31 09:45:17;;;;;;;21.70;4.80;;;;;;;;;;5068543;28;20625;-77
2024/03/31 09:47:45;;;;;;;19.10;5.13;;;;;;;;;;5068609;28;21195;-80
2024/03/31 09:50:14;;;;;;;19.87;4.30;;;;;;;;;;5068686;28;21176;-79
2024/03/31 09:52:43;;;;;;;12.10;5.40;;;;;;;;;;5068996;28;20618;-78
2024/03/31 09:55:10;;;;;;;13.90;4.63;;;;;;;;;;5071625;28;20629;-77
2024/03/31 09:57:38;;;;;;;17.27;5.80;;;;;;;;;;5061895;28;20617;-77
2024/03/31 10:00:08;;;;;;;12.43;5.30;;;;;;;;;;5069292;28;20666;-79
2024/03/31 10:02:35;;;;;;;18.63;5.00;;;;;;;;;;5069519;28;20630;-80
2024/03/31 10:05:05;;;;;;;13.77;5.40;;;;;;;;;;5068962;28;20617;-80
2024/03/31 10:07:33;;;;;;;13.40;5.33;;;;;;;;;;5065809;28;20640;-78
2024/03/31 10:10:00;;;;;;;11.87;4.70;;;;;;;;;;5072360;28;20648;-79
2024/03/31 10:12:28;;;;;;;12.37;5.60;;;;;;;;;;5066358;28;20644;-79
2024/03/31 10:14:55;;;;;;;15.80;5.47;;;;;;;;;;5059470;28;20617;-78
2024/03/31 10:17:24;;;;;;;22.50;6.03;;;;;;;;;;5079992;28;21028;-78
2024/03/31 10:19:51;;;;;;;14.33;6.10;;;;;;;;;;5068791;28;21011;-76
2024/03/31 10:22:18;;;;;;;20.10;6.53;;;;;;;;;;5075874;28;20632;-79
2024/03/31 10:24:44;;;;;;;17.93;6.33;;;;;;;;;;5072770;28;20622;-79
2024/03/31 10:27:11;;;;;;;14.47;6.03;;;;;;;;;;5075862;28;20617;-79
2024/03/31 10:29:39;;;;;;;15.50;5.93;;;;;;;;;;5077046;28;20617;-78
2024/03/31 10:32:09;;;;;;;14.83;5.97;;;;;;;;;;5074123;28;21098;-79
2024/03/31 10:34:36;;;;;;;14.10;6.50;;;;;;;;;;5072168;28;20622;-80
2024/03/31 10:37:04;;;;;;;19.60;5.70;;;;;;;;;;5072337;28;20638;-82
2024/03/31 10:39:30;;;;;;;11.97;5.90;;;;;;;;;;5074933;28;21020;-81
2024/03/31 10:41:57;;;;;;;8.37;5.80;;;;;;;;;;5079903;28;20752;-79
2024/03/31 10:44:25;;;;;;;18.90;6.10;;;;;;;;;;5068913;28;20679;-81
2024/03/31 10:46:52;;;;;;;12.10;6.30;;;;;;;;;;5071673;28;21237;-80
2024/03/31 10:49:18;;;;;;;15.93;7.30;;;;;;;;;;5072271;28;20677;-79
2024/03/31 10:51:47;;;;;;;12.73;6.30;;;;;;;;;;5072296;28;20632;-81
2024/03/31 10:54:26;;;;;;;14.93;7.27;;;;;;;;;;5080861;28;20709;-79
2024/03/31 10:57:01;;;;;;;11.17;6.33;;;;;;;;;;5080031;28;20614;-79
2024/03/31 10:59:28;;;;;;;10.47;6.63;;;;;;;;;;5070072;28;20672;-79
2024/03/31 11:01:56;;;;;;;13.97;7.40;;;;;;;;;;5077056;28;20664;-80
2024/03/31 11:04:23;;;;;;;15.33;6.50;;;;;;;;;;5087977;28;21156;-78
2024/03/31 11:06:52;;;;;;;22.87;6.47;;;;;;;;;;5063897;28;20619;-79
2024/03/31 11:09:20;;;;;;;12.50;6.60;;;;;;;;;;5072280;28;20614;-78
2024/03/31 11:11:47;;;;;;;12.87;7.20;;;;;;;;;;5073024;28;20633;-77
2024/03/31 11:14:13;;;;;;;11.23;6.87;;;;;;;;;;5067120;28;20652;-77
2024/03/31 11:16:41;;;;;;;19.90;7.70;;;;;;;;;;5082063;28;20675;-77
2024/03/31 11:19:08;;;;;;;12.83;6.93;;;;;;;;;;5084582;28;20625;-78
2024/03/31 11:21:36;;;;;;;12.00;7.10;;;;;;;;;;5082614;28;20662;-78
2024/03/31 11:24:04;;;;;;;11.60;7.53;;;;;;;;;;5075881;28;20622;-78
2024/03/31 11:26:36;;;;;;;16.13;8.47;;;;;;;;;;5074282;28;20598;-77
2024/03/31 11:29:04;;;;;;;21.57;8.77;;;;;;;;;;5077378;28;21176;-79
2024/03/31 11:31:31;;;;;;;18.90;9.60;;;;;;;;;;5078529;28;20626;-78
2024/03/31 11:33:58;;;;;;;23.20;8.57;;;;;;;;;;5084484;28;20621;-80
2024/03/31 11:36:25;;;;;;;15.07;8.17;;;;;;;;;;5084533;28;20639;-78
2024/03/31 11:38:51;;;;;;;14.87;8.17;;;;;;;;;;5074769;28;20991;-78
2024/03/31 11:41:20;;;;;;;21.60;8.60;;;;;;;;;;5081366;28;20660;-79
2024/03/31 11:43:46;;;;;;;13.90;7.70;;;;;;;;;;5091436;28;21272;-80
2024/03/31 11:46:17;;;;;;;13.30;7.97;;;;;;;;;;5063995;28;20638;-79
2024/03/31 11:48:43;;;;;;;19.50;8.63;;;;;;;;;;5069052;28;20611;-79
2024/03/31 11:51:11;;;;;;;21.93;9.90;;;;;;;;;;5061188;28;20615;-78
2024/03/31 11:53:37;;;;;;;10.90;9.03;;;;;;;;;;5082586;28;20629;-78
2024/03/31 11:56:05;;;;;;;16.30;8.97;;;;;;;;;;5080845;28;20618;-79
2024/03/31 11:58:36;;;;;;;21.57;10.77;;;;;;;;;;5073085;28;20640;-80
2024/03/31 12:01:03;;;;;;;14.80;9.70;;;;;;;;;;5081379;28;20677;-77
2024/03/31 12:03:30;;;;;;;15.90;10.07;;;;;;;;;;5066277;28;20641;-78
2024/03/31 12:05:57;;;;;;;21.73;9.37;;;;;;;;;;5067109;28;20617;-79
2024/03/31 12:08:24;;;;;;;12.23;8.50;;;;;;;;;;5073623;28;21194;-78
2024/03/31 12:10:51;;;;;;;18.83;9.20;;;;;;;;;;5074471;28;20699;-79
2024/03/31 12:13:18;;;;;;;18.03;9.63;;;;;;;;;;5073423;28;20622;-79
2024/03/31 12:15:46;;;;;;;16.30;9.13;;;;;;;;;;5081592;28;20625;-79
2024/03/31 12:18:13;;;;;;;12.77;9.23;;;;;;;;;;5082882;28;20621;-78
2024/03/31 12:20:40;;;;;;;18.00;10.03;;;;;;;;;;5072468;28;20632;-79
2024/03/31 12:23:07;;;;;;;12.07;9.83;;;;;;;;;;5074907;28;20625;-80
2024/03/31 12:25:36;;;;;;;17.73;10.83;;;;;;;;;;5086059;28;20714;-79
2024/03/31 12:28:02;;;;;;;23.90;11.10;;;;;;;;;;5070343;28;21254;-80
2024/03/31 12:30:36;;;;;;;18.27;11.80;;;;;;;;;;5073872;28;20637;-81
2024/03/31 12:33:04;;;;;;;18.80;11.40;;;;;;;;;;5065234;28;20631;-79
2024/03/31 12:35:31;;;;;;;16.70;11.17;;;;;;;;;;5062502;28;20629;-79
2024/03/31 12:37:58;;;;;;;14.27;10.40;;;;;;;;;;5073569;28;21175;-79
2024/03/31 12:40:26;;;;;;;15.60;11.40;;;;;;;;;;5070805;28;20626;-78
2024/03/31 12:42:54;;;;;;;19.77;12.37;;;;;;;;;;5067753;28;20653;-78
2024/03/31 12:45:21;;;;;;;17.80;10.93;;;;;;;;;;5073598;28;20610;-78
2024/03/31 12:47:48;;;;;;;13.07;11.87;;;;;;;;;;5061266;28;20987;-80
2024/03/31 12:50:16;;;;;;;18.07;11.80;;;;;;;;;;5068064;28;20656;-78
2024/03/31 12:52:43;;;;;;;15.87;11.90;;;;;;;;;;5066677;28;20672;-80
2024/03/31 12:55:10;;;;;;;13.07;11.87;;;;;;;;;;5066739;28;20749;-80
2024/03/31 12:57:37;;;;;;;21.40;11.93;;;;;;;;;;5061727;28;20623;-79
2024/03/31 13:00:05;;;;;;;16.17;12.50;;;;;;;;;;5063293;28;20655;-80
2024/03/31 13:02:31;;;;;;;18.33;12.00;;;;;;;;;;5060924;28;21235;-80
2024/03/31 13:05:01;;;;;;;17.90;11.50;;;;;;;;;;5076385;28;20613;-77
2024/03/31 13:07:28;;;;;;;21.23;11.77;;;;;;;;;;5074491;28;20633;-77
2024/03/31 13:10:01;;;;;;;12.67;11.30;;;;;;;;;;5072732;28;20622;-79
2024/03/31 13:12:27;;;;;;;18.90;12.37;;;;;;;;;;5073392;28;20616;-77
2024/03/31 13:14:56;;;;;;;23.07;10.60;;;;;;;;;;5076934;28;20623;-78
2024/03/31 13:17:22;;;;;;;16.97;10.10;;;;;;;;;;5084679;28;20627;-77
2024/03/31 13:19:49;;;;;;;14.53;10.60;;;;;;;;;;5077460;28;21012;-77
2024/03/31 13:22:15;;;;;;;13.00;10.50;;;;;;;;;;5080667;28;21293;-78
2024/03/31 13:24:44;;;;;;;14.97;10.80;;;;;;;;;;5078717;28;20618;-78
2024/03/31 13:27:10;;;;;;;15.90;10.73;;;;;;;;;;5077490;28;20625;-78
2024/03/31 13:29:37;;;;;;;18.43;11.73;;;;;;;;;;5079228;28;20991;-77
2024/03/31 13:32:04;;;;;;;22.53;11.40;;;;;;;;;;5081568;28;20621;-77
2024/03/31 13:34:31;;;;;;;18.90;12.40;;;;;;;;;;5069851;28;20720;-77
2024/03/31 13:36:57;;;;;;;14.53;10.03;;;;;;;;;;5077356;28;20621;-77
2024/03/31 13:39:24;;;;;;;23.70;11.67;;;;;;;;;;5079942;28;20614;-78
2024/03/31 13:41:52;;;;;;;14.30;10.70;;;;;;;;;;5083830;28;21424;-76
2024/03/31 13:44:19;;;;;;;13.60;11.03;;;;;;;;;;5072298;28;20627;-77
2024/03/31 13:46:46;;;;;;;19.43;10.73;;;;;;;;;;5081401;28;20637;-76
2024/03/31 13:49:13;;;;;;;18.60;11.40;;;;;;;;;;5080045;28;20628;-77
2024/03/31 13:51:39;;;;;;;24.77;12.47;;;;;;;;;;5079842;28;20625;-77
2024/03/31 13:54:06;;;;;;;13.97;10.60;;;;;;;;;;5081335;28;20624;-76
2024/03/31 13:56:32;;;;;;;23.03;11.07;;;;;;;;;;5080826;28;20679;-77
2024/03/31 13:59:01;;;;;;;20.10;11.90;;;;;;;;;;5084044;28;20626;-77
2024/03/31 14:01:27;;;;;;;16.80;10.97;;;;;;;;;;5081774;28;20673;-78
2024/03/31 14:03:54;;;;;;;17.30;10.97;;;;;;;;;;5080532;28;20614;-78
2024/03/31 14:06:20;;;;;;;17.93;12.10;;;;;;;;;;5075723;28;20629;-77
2024/03/31 14:08:47;;;;;;;14.57;11.37;;;;;;;;;;5078487;28;20622;-77
2024/03/31 14:11:14;;;;;;;23.87;13.03;;;;;;;;;;5080431;28;20625;-80
2024/03/31 14:13:41;;;;;;;20.50;13.50;;;;;;;;;;5078699;28;20671;-76
2024/03/31 14:16:09;;;;;;;16.47;12.07;;;;;;;;;;5061964;28;20672;-78
2024/03/31 14:18:37;;;;;;;15.90;12.97;;;;;;;;;;5076916;28;20621;-77
2024/03/31 14:21:03;;;;;;;23.37;12.07;;;;;;;;;;5079341;28;20651;-78
2024/03/31 14:23:30;;;;;;;19.73;12.77;;;;;;;;;;5081566;28;20661;-78